sensor_id;sensor_type;location;lat;lon;timestamp;P1;durP1;ratioP1;P2;durP2;ratioP2
60060;SDS011;45933;51.336;12.612;2022-12-18T00:00:40;47.87;;;23.67;;
60060;SDS011;45933;51.336;12.612;2022-12-18T00:03:06;59.07;;;24.30;;
60060;SDS011;45933;51.336;12.612;2022-12-18T00:05:31;49.50;;;24.00;;
60060;SDS011;45933;51.336;12.612;2022-12-18T00:07:57;49.43;;;23.13;;
60060;SDS011;45933;51.336;12.612;2022-12-18T00:10:22;48.10;;;24.50;;
60060;SDS011;45933;51.336;12.612;2022-12-18T00:12:47;42.90;;;22.70;;
60060;SDS011;45933;51.336;12.612;2022-12-18T00:15:13;48.93;;;22.10;;
60060;SDS011;45933;51.336;12.612;2022-12-18T00:17:38;49.97;;;24.20;;
60060;SDS011;45933;51.336;12.612;2022-12-18T00:20:03;45.47;;;22.63;;
60060;SDS011;45933;51.336;12.612;2022-12-18T00:22:29;44.80;;;21.90;;
60060;SDS011;45933;51.336;12.612;2022-12-18T00:24:54;42.70;;;21.03;;
60060;SDS011;45933;51.336;12.612;2022-12-18T00:27:20;45.30;;;22.30;;
60060;SDS011;45933;51.336;12.612;2022-12-18T00:29:45;46.17;;;22.00;;
60060;SDS011;45933;51.336;12.612;2022-12-18T00:32:10;44.13;;;21.60;;
60060;SDS011;45933;51.336;12.612;2022-12-18T00:34:35;41.80;;;21.17;;
60060;SDS011;45933;51.336;12.612;2022-12-18T00:37:01;43.77;;;20.73;;
60060;SDS011;45933;51.336;12.612;2022-12-18T00:39:26;38.97;;;19.57;;
60060;SDS011;45933;51.336;12.612;2022-12-18T00:41:52;45.27;;;20.33;;
60060;SDS011;45933;51.336;12.612;2022-12-18T00:44:35;44.33;;;20.60;;
60060;SDS011;45933;51.336;12.612;2022-12-18T00:47:01;41.80;;;20.83;;
60060;SDS011;45933;51.336;12.612;2022-12-18T00:49:26;46.07;;;20.97;;
60060;SDS011;45933;51.336;12.612;2022-12-18T00:51:51;41.47;;;20.13;;
60060;SDS011;45933;51.336;12.612;2022-12-18T00:54:17;42.57;;;21.53;;
60060;SDS011;45933;51.336;12.612;2022-12-18T00:56:42;41.87;;;21.40;;
60060;SDS011;45933;51.336;12.612;2022-12-18T00:59:08;43.63;;;20.43;;
60060;SDS011;45933;51.336;12.612;2022-12-18T01:01:33;40.50;;;20.73;;
60060;SDS011;45933;51.336;12.612;2022-12-18T01:03:59;43.57;;;22.00;;
60060;SDS011;45933;51.336;12.612;2022-12-18T01:06:26;46.63;;;22.73;;
60060;SDS011;45933;51.336;12.612;2022-12-18T01:08:51;39.53;;;20.30;;
60060;SDS011;45933;51.336;12.612;2022-12-18T01:11:17;45.10;;;22.13;;
60060;SDS011;45933;51.336;12.612;2022-12-18T01:13:44;43.13;;;20.70;;
60060;SDS011;45933;51.336;12.612;2022-12-18T01:16:13;46.67;;;22.60;;
60060;SDS011;45933;51.336;12.612;2022-12-18T01:18:41;44.30;;;22.60;;
60060;SDS011;45933;51.336;12.612;2022-12-18T01:21:10;44.70;;;21.73;;
60060;SDS011;45933;51.336;12.612;2022-12-18T01:23:38;46.40;;;22.13;;
60060;SDS011;45933;51.336;12.612;2022-12-18T01:26:07;39.37;;;21.73;;
60060;SDS011;45933;51.336;12.612;2022-12-18T01:28:34;42.03;;;22.10;;
60060;SDS011;45933;51.336;12.612;2022-12-18T01:31:10;45.17;;;22.80;;
60060;SDS011;45933;51.336;12.612;2022-12-18T01:33:40;43.63;;;20.53;;
60060;SDS011;45933;51.336;12.612;2022-12-18T01:36:06;39.37;;;20.27;;
60060;SDS011;45933;51.336;12.612;2022-12-18T01:38:32;38.33;;;20.13;;
60060;SDS011;45933;51.336;12.612;2022-12-18T01:40:58;37.90;;;18.73;;
60060;SDS011;45933;51.336;12.612;2022-12-18T01:43:40;40.07;;;20.07;;
60060;SDS011;45933;51.336;12.612;2022-12-18T01:46:10;41.10;;;19.07;;
60060;SDS011;45933;51.336;12.612;2022-12-18T01:48:35;38.53;;;20.30;;
60060;SDS011;45933;51.336;12.612;2022-12-18T01:51:01;44.07;;;22.43;;
60060;SDS011;45933;51.336;12.612;2022-12-18T01:53:27;43.70;;;20.73;;
60060;SDS011;45933;51.336;12.612;2022-12-18T01:55:53;38.17;;;19.50;;
60060;SDS011;45933;51.336;12.612;2022-12-18T01:58:32;39.40;;;19.47;;
60060;SDS011;45933;51.336;12.612;2022-12-18T02:01:12;38.03;;;19.63;;
60060;SDS011;45933;51.336;12.612;2022-12-18T02:03:40;42.40;;;19.87;;
60060;SDS011;45933;51.336;12.612;2022-12-18T02:08:51;43.60;;;22.30;;
60060;SDS011;45933;51.336;12.612;2022-12-18T02:17:15;88.17;;;31.53;;
60060;SDS011;45933;51.336;12.612;2022-12-18T02:27:46;61.70;;;26.30;;
60060;SDS011;45933;51.336;12.612;2022-12-18T02:30:15;55.47;;;24.47;;
60060;SDS011;45933;51.336;12.612;2022-12-18T02:32:43;53.47;;;24.40;;
60060;SDS011;45933;51.336;12.612;2022-12-18T02:35:13;65.10;;;28.00;;
60060;SDS011;45933;51.336;12.612;2022-12-18T02:37:43;66.63;;;28.73;;
60060;SDS011;45933;51.336;12.612;2022-12-18T02:40:11;63.23;;;26.80;;
60060;SDS011;45933;51.336;12.612;2022-12-18T02:42:40;58.40;;;24.80;;
60060;SDS011;45933;51.336;12.612;2022-12-18T02:45:05;47.93;;;23.10;;
60060;SDS011;45933;51.336;12.612;2022-12-18T02:47:32;43.23;;;20.73;;
60060;SDS011;45933;51.336;12.612;2022-12-18T02:50:26;42.30;;;20.60;;
60060;SDS011;45933;51.336;12.612;2022-12-18T02:53:10;41.83;;;20.27;;
60060;SDS011;45933;51.336;12.612;2022-12-18T03:01:09;41.97;;;20.10;;
60060;SDS011;45933;51.336;12.612;2022-12-18T03:03:55;41.27;;;21.27;;
60060;SDS011;45933;51.336;12.612;2022-12-18T03:06:33;47.40;;;21.03;;
60060;SDS011;45933;51.336;12.612;2022-12-18T03:09:07;42.33;;;20.47;;
60060;SDS011;45933;51.336;12.612;2022-12-18T03:11:37;40.97;;;21.07;;
60060;SDS011;45933;51.336;12.612;2022-12-18T03:14:26;43.30;;;20.37;;
60060;SDS011;45933;51.336;12.612;2022-12-18T03:16:57;44.30;;;19.83;;
60060;SDS011;45933;51.336;12.612;2022-12-18T03:19:26;46.20;;;20.83;;
60060;SDS011;45933;51.336;12.612;2022-12-18T03:21:55;38.93;;;19.53;;
60060;SDS011;45933;51.336;12.612;2022-12-18T03:24:22;41.50;;;19.40;;
60060;SDS011;45933;51.336;12.612;2022-12-18T03:26:52;41.70;;;19.77;;
60060;SDS011;45933;51.336;12.612;2022-12-18T03:29:24;42.10;;;18.70;;
60060;SDS011;45933;51.336;12.612;2022-12-18T03:31:56;40.13;;;19.83;;
60060;SDS011;45933;51.336;12.612;2022-12-18T03:34:31;36.93;;;18.43;;
60060;SDS011;45933;51.336;12.612;2022-12-18T03:37:00;43.70;;;19.87;;
60060;SDS011;45933;51.336;12.612;2022-12-18T03:39:26;38.90;;;19.47;;
60060;SDS011;45933;51.336;12.612;2022-12-18T03:42:15;34.97;;;18.23;;
60060;SDS011;45933;51.336;12.612;2022-12-18T03:45:42;41.57;;;19.17;;
60060;SDS011;45933;51.336;12.612;2022-12-18T03:50:25;37.63;;;17.80;;
60060;SDS011;45933;51.336;12.612;2022-12-18T03:52:59;33.50;;;17.47;;
60060;SDS011;45933;51.336;12.612;2022-12-18T03:55:30;35.53;;;17.80;;
60060;SDS011;45933;51.336;12.612;2022-12-18T03:58:00;36.13;;;17.17;;
60060;SDS011;45933;51.336;12.612;2022-12-18T04:00:28;35.77;;;17.50;;
60060;SDS011;45933;51.336;12.612;2022-12-18T04:02:55;33.60;;;17.53;;
60060;SDS011;45933;51.336;12.612;2022-12-18T04:05:25;34.93;;;18.03;;
60060;SDS011;45933;51.336;12.612;2022-12-18T04:07:52;33.37;;;17.23;;
60060;SDS011;45933;51.336;12.612;2022-12-18T04:10:18;38.13;;;17.97;;
60060;SDS011;45933;51.336;12.612;2022-12-18T04:12:44;32.43;;;16.97;;
60060;SDS011;45933;51.336;12.612;2022-12-18T04:15:10;38.53;;;18.50;;
60060;SDS011;45933;51.336;12.612;2022-12-18T04:17:36;35.17;;;17.07;;
60060;SDS011;45933;51.336;12.612;2022-12-18T04:20:03;34.20;;;16.80;;
60060;SDS011;45933;51.336;12.612;2022-12-18T04:22:29;34.33;;;17.37;;
60060;SDS011;45933;51.336;12.612;2022-12-18T04:24:54;31.70;;;15.37;;
60060;SDS011;45933;51.336;12.612;2022-12-18T04:27:19;32.27;;;17.40;;
60060;SDS011;45933;51.336;12.612;2022-12-18T04:29:45;35.20;;;16.83;;
60060;SDS011;45933;51.336;12.612;2022-12-18T04:32:10;35.27;;;17.37;;
60060;SDS011;45933;51.336;12.612;2022-12-18T04:34:35;34.40;;;16.93;;
60060;SDS011;45933;51.336;12.612;2022-12-18T04:37:01;33.80;;;16.23;;
60060;SDS011;45933;51.336;12.612;2022-12-18T04:39:26;30.13;;;15.53;;
60060;SDS011;45933;51.336;12.612;2022-12-18T04:41:51;29.97;;;15.77;;
60060;SDS011;45933;51.336;12.612;2022-12-18T04:44:17;33.37;;;16.70;;
60060;SDS011;45933;51.336;12.612;2022-12-18T04:46:42;34.70;;;17.57;;
60060;SDS011;45933;51.336;12.612;2022-12-18T04:49:08;31.93;;;16.43;;
60060;SDS011;45933;51.336;12.612;2022-12-18T04:54:44;30.57;;;15.23;;
60060;SDS011;45933;51.336;12.612;2022-12-18T04:57:09;31.40;;;16.00;;
60060;SDS011;45933;51.336;12.612;2022-12-18T04:59:35;33.23;;;16.33;;
60060;SDS011;45933;51.336;12.612;2022-12-18T05:02:00;34.17;;;15.63;;
60060;SDS011;45933;51.336;12.612;2022-12-18T05:04:25;32.23;;;15.70;;
60060;SDS011;45933;51.336;12.612;2022-12-18T05:06:51;32.53;;;16.07;;
60060;SDS011;45933;51.336;12.612;2022-12-18T05:09:16;40.10;;;17.77;;
60060;SDS011;45933;51.336;12.612;2022-12-18T05:11:41;35.20;;;16.67;;
60060;SDS011;45933;51.336;12.612;2022-12-18T05:14:07;36.00;;;16.77;;
60060;SDS011;45933;51.336;12.612;2022-12-18T05:16:32;30.53;;;14.73;;
60060;SDS011;45933;51.336;12.612;2022-12-18T05:18:57;26.80;;;13.90;;
60060;SDS011;45933;51.336;12.612;2022-12-18T05:21:23;25.73;;;13.50;;
60060;SDS011;45933;51.336;12.612;2022-12-18T05:23:48;26.50;;;13.57;;
60060;SDS011;45933;51.336;12.612;2022-12-18T05:26:15;26.60;;;13.27;;
60060;SDS011;45933;51.336;12.612;2022-12-18T05:28:42;24.73;;;12.83;;
60060;SDS011;45933;51.336;12.612;2022-12-18T05:31:07;25.00;;;12.97;;
60060;SDS011;45933;51.336;12.612;2022-12-18T05:33:34;24.77;;;13.23;;
60060;SDS011;45933;51.336;12.612;2022-12-18T05:36:00;26.13;;;12.47;;
60060;SDS011;45933;51.336;12.612;2022-12-18T05:38:27;28.17;;;13.43;;
60060;SDS011;45933;51.336;12.612;2022-12-18T05:40:54;29.10;;;13.73;;
60060;SDS011;45933;51.336;12.612;2022-12-18T05:43:19;24.43;;;12.27;;
60060;SDS011;45933;51.336;12.612;2022-12-18T05:45:46;27.63;;;13.37;;
60060;SDS011;45933;51.336;12.612;2022-12-18T05:48:12;28.17;;;12.87;;
60060;SDS011;45933;51.336;12.612;2022-12-18T05:50:38;25.20;;;12.43;;
60060;SDS011;45933;51.336;12.612;2022-12-18T05:53:05;20.13;;;11.27;;
60060;SDS011;45933;51.336;12.612;2022-12-18T05:55:34;22.90;;;11.57;;
60060;SDS011;45933;51.336;12.612;2022-12-18T05:58:02;24.63;;;12.13;;
60060;SDS011;45933;51.336;12.612;2022-12-18T06:00:29;23.83;;;11.83;;
60060;SDS011;45933;51.336;12.612;2022-12-18T06:02:55;21.93;;;11.20;;
60060;SDS011;45933;51.336;12.612;2022-12-18T06:05:21;20.03;;;10.57;;
60060;SDS011;45933;51.336;12.612;2022-12-18T06:07:46;24.63;;;11.83;;
60060;SDS011;45933;51.336;12.612;2022-12-18T06:10:11;20.77;;;11.63;;
60060;SDS011;45933;51.336;12.612;2022-12-18T06:12:37;22.17;;;12.27;;
60060;SDS011;45933;51.336;12.612;2022-12-18T06:15:02;22.70;;;11.93;;
60060;SDS011;45933;51.336;12.612;2022-12-18T06:17:32;26.33;;;12.93;;
60060;SDS011;45933;51.336;12.612;2022-12-18T06:19:59;22.87;;;13.17;;
60060;SDS011;45933;51.336;12.612;2022-12-18T06:22:25;21.20;;;11.37;;
60060;SDS011;45933;51.336;12.612;2022-12-18T06:24:51;22.67;;;11.53;;
60060;SDS011;45933;51.336;12.612;2022-12-18T06:27:16;25.63;;;12.83;;
60060;SDS011;45933;51.336;12.612;2022-12-18T06:29:42;24.90;;;13.00;;
60060;SDS011;45933;51.336;12.612;2022-12-18T06:32:07;27.10;;;13.13;;
60060;SDS011;45933;51.336;12.612;2022-12-18T06:34:33;23.20;;;12.03;;
60060;SDS011;45933;51.336;12.612;2022-12-18T06:36:59;23.27;;;11.30;;
60060;SDS011;45933;51.336;12.612;2022-12-18T06:39:24;23.20;;;11.87;;
60060;SDS011;45933;51.336;12.612;2022-12-18T06:41:52;24.13;;;11.70;;
60060;SDS011;45933;51.336;12.612;2022-12-18T06:44:17;21.70;;;11.63;;
60060;SDS011;45933;51.336;12.612;2022-12-18T06:46:43;23.90;;;11.00;;
60060;SDS011;45933;51.336;12.612;2022-12-18T06:49:08;24.60;;;12.03;;
60060;SDS011;45933;51.336;12.612;2022-12-18T06:51:34;25.47;;;12.50;;
60060;SDS011;45933;51.336;12.612;2022-12-18T06:54:00;24.53;;;12.13;;
60060;SDS011;45933;51.336;12.612;2022-12-18T06:56:25;23.27;;;11.60;;
60060;SDS011;45933;51.336;12.612;2022-12-18T06:58:50;24.30;;;12.77;;
60060;SDS011;45933;51.336;12.612;2022-12-18T07:01:16;22.63;;;11.17;;
60060;SDS011;45933;51.336;12.612;2022-12-18T07:03:42;23.03;;;11.23;;
60060;SDS011;45933;51.336;12.612;2022-12-18T07:06:14;20.00;;;10.93;;
60060;SDS011;45933;51.336;12.612;2022-12-18T07:08:44;20.77;;;10.87;;
60060;SDS011;45933;51.336;12.612;2022-12-18T07:11:10;21.67;;;10.17;;
60060;SDS011;45933;51.336;12.612;2022-12-18T07:13:35;18.80;;;10.10;;
60060;SDS011;45933;51.336;12.612;2022-12-18T07:16:07;22.60;;;10.33;;
60060;SDS011;45933;51.336;12.612;2022-12-18T07:18:34;19.73;;;9.90;;
60060;SDS011;45933;51.336;12.612;2022-12-18T07:21:07;23.83;;;11.03;;
60060;SDS011;45933;51.336;12.612;2022-12-18T07:23:35;24.77;;;11.27;;
60060;SDS011;45933;51.336;12.612;2022-12-18T07:26:02;21.97;;;10.57;;
60060;SDS011;45933;51.336;12.612;2022-12-18T07:28:28;19.10;;;9.77;;
60060;SDS011;45933;51.336;12.612;2022-12-18T07:30:53;19.03;;;9.57;;
60060;SDS011;45933;51.336;12.612;2022-12-18T07:33:19;20.00;;;9.77;;
60060;SDS011;45933;51.336;12.612;2022-12-18T07:35:44;21.60;;;10.23;;
60060;SDS011;45933;51.336;12.612;2022-12-18T07:38:09;20.43;;;9.60;;
60060;SDS011;45933;51.336;12.612;2022-12-18T07:40:35;22.40;;;10.90;;
60060;SDS011;45933;51.336;12.612;2022-12-18T07:43:00;21.63;;;10.80;;
60060;SDS011;45933;51.336;12.612;2022-12-18T07:45:25;21.00;;;10.20;;
60060;SDS011;45933;51.336;12.612;2022-12-18T07:47:51;18.93;;;9.33;;
60060;SDS011;45933;51.336;12.612;2022-12-18T07:50:16;19.50;;;9.43;;
60060;SDS011;45933;51.336;12.612;2022-12-18T07:52:41;20.97;;;10.60;;
60060;SDS011;45933;51.336;12.612;2022-12-18T07:55:07;17.47;;;9.63;;
60060;SDS011;45933;51.336;12.612;2022-12-18T07:57:32;17.50;;;9.37;;
60060;SDS011;45933;51.336;12.612;2022-12-18T07:59:58;17.03;;;9.20;;
60060;SDS011;45933;51.336;12.612;2022-12-18T08:02:23;17.90;;;9.27;;
60060;SDS011;45933;51.336;12.612;2022-12-18T08:04:48;20.67;;;9.17;;
60060;SDS011;45933;51.336;12.612;2022-12-18T08:07:14;26.17;;;12.93;;
60060;SDS011;45933;51.336;12.612;2022-12-18T08:09:39;22.53;;;9.90;;
60060;SDS011;45933;51.336;12.612;2022-12-18T08:12:04;16.87;;;8.97;;
60060;SDS011;45933;51.336;12.612;2022-12-18T08:14:30;18.77;;;8.40;;
60060;SDS011;45933;51.336;12.612;2022-12-18T08:16:55;14.90;;;8.27;;
60060;SDS011;45933;51.336;12.612;2022-12-18T08:19:20;15.87;;;8.70;;
60060;SDS011;45933;51.336;12.612;2022-12-18T08:21:46;14.07;;;7.60;;
60060;SDS011;45933;51.336;12.612;2022-12-18T08:24:11;15.67;;;8.10;;
60060;SDS011;45933;51.336;12.612;2022-12-18T08:26:36;11.97;;;7.50;;
60060;SDS011;45933;51.336;12.612;2022-12-18T08:29:02;17.43;;;8.33;;
60060;SDS011;45933;51.336;12.612;2022-12-18T08:31:28;17.37;;;9.00;;
60060;SDS011;45933;51.336;12.612;2022-12-18T08:33:54;16.17;;;9.30;;
60060;SDS011;45933;51.336;12.612;2022-12-18T08:36:21;15.27;;;9.00;;
60060;SDS011;45933;51.336;12.612;2022-12-18T08:38:47;18.33;;;9.23;;
60060;SDS011;45933;51.336;12.612;2022-12-18T08:41:14;18.80;;;8.90;;
60060;SDS011;45933;51.336;12.612;2022-12-18T08:43:40;16.70;;;9.23;;
60060;SDS011;45933;51.336;12.612;2022-12-18T08:46:25;15.63;;;8.67;;
60060;SDS011;45933;51.336;12.612;2022-12-18T08:48:52;16.10;;;8.60;;
60060;SDS011;45933;51.336;12.612;2022-12-18T08:51:20;19.33;;;9.80;;
60060;SDS011;45933;51.336;12.612;2022-12-18T08:53:45;19.03;;;8.40;;
60060;SDS011;45933;51.336;12.612;2022-12-18T08:56:11;17.57;;;8.93;;
60060;SDS011;45933;51.336;12.612;2022-12-18T08:58:37;15.70;;;8.43;;
60060;SDS011;45933;51.336;12.612;2022-12-18T09:01:03;15.87;;;9.43;;
60060;SDS011;45933;51.336;12.612;2022-12-18T09:03:30;16.60;;;8.97;;
60060;SDS011;45933;51.336;12.612;2022-12-18T09:05:55;16.07;;;9.27;;
60060;SDS011;45933;51.336;12.612;2022-12-18T09:08:21;13.80;;;8.07;;
60060;SDS011;45933;51.336;12.612;2022-12-18T09:10:47;15.83;;;9.03;;
60060;SDS011;45933;51.336;12.612;2022-12-18T09:13:14;12.80;;;8.00;;
60060;SDS011;45933;51.336;12.612;2022-12-18T09:15:41;17.70;;;9.53;;
60060;SDS011;45933;51.336;12.612;2022-12-18T09:18:07;16.77;;;8.60;;
60060;SDS011;45933;51.336;12.612;2022-12-18T09:20:32;16.50;;;9.17;;
60060;SDS011;45933;51.336;12.612;2022-12-18T09:22:58;13.83;;;9.00;;
60060;SDS011;45933;51.336;12.612;2022-12-18T09:25:23;13.80;;;8.83;;
60060;SDS011;45933;51.336;12.612;2022-12-18T09:27:48;15.37;;;8.87;;
60060;SDS011;45933;51.336;12.612;2022-12-18T09:30:14;15.77;;;9.20;;
60060;SDS011;45933;51.336;12.612;2022-12-18T09:32:39;12.60;;;8.03;;
60060;SDS011;45933;51.336;12.612;2022-12-18T09:35:04;10.60;;;7.73;;
60060;SDS011;45933;51.336;12.612;2022-12-18T09:37:30;10.13;;;7.50;;
60060;SDS011;45933;51.336;12.612;2022-12-18T09:39:56;11.30;;;7.60;;
60060;SDS011;45933;51.336;12.612;2022-12-18T09:42:21;12.17;;;8.20;;
60060;SDS011;45933;51.336;12.612;2022-12-18T09:44:53;9.33;;;7.43;;
60060;SDS011;45933;51.336;12.612;2022-12-18T09:47:30;12.67;;;8.80;;
60060;SDS011;45933;51.336;12.612;2022-12-18T09:50:04;11.97;;;8.03;;
60060;SDS011;45933;51.336;12.612;2022-12-18T09:52:43;11.23;;;7.33;;
60060;SDS011;45933;51.336;12.612;2022-12-18T10:01:10;8.93;;;6.63;;
60060;SDS011;45933;51.336;12.612;2022-12-18T10:03:46;10.33;;;7.13;;
60060;SDS011;45933;51.336;12.612;2022-12-18T10:06:18;12.50;;;8.27;;
60060;SDS011;45933;51.336;12.612;2022-12-18T10:08:58;14.07;;;9.13;;
60060;SDS011;45933;51.336;12.612;2022-12-18T10:11:59;15.52;;;10.57;;
60060;SDS011;45933;51.336;12.612;2022-12-18T10:22:30;11.70;;;8.77;;
60060;SDS011;45933;51.336;12.612;2022-12-18T10:25:21;10.13;;;7.30;;
60060;SDS011;45933;51.336;12.612;2022-12-18T10:27:56;10.15;;;7.70;;
60060;SDS011;45933;51.336;12.612;2022-12-18T10:30:32;13.27;;;8.32;;
60060;SDS011;45933;51.336;12.612;2022-12-18T10:33:00;10.10;;;8.32;;
60060;SDS011;45933;51.336;12.612;2022-12-18T10:35:27;10.30;;;8.00;;
60060;SDS011;45933;51.336;12.612;2022-12-18T10:38:03;11.70;;;7.65;;
60060;SDS011;45933;51.336;12.612;2022-12-18T10:41:03;10.38;;;7.90;;
60060;SDS011;45933;51.336;12.612;2022-12-18T10:46:11;11.25;;;8.35;;
60060;SDS011;45933;51.336;12.612;2022-12-18T10:48:54;10.85;;;9.40;;
60060;SDS011;45933;51.336;12.612;2022-12-18T10:51:28;10.63;;;8.93;;
60060;SDS011;45933;51.336;12.612;2022-12-18T10:54:03;11.73;;;9.13;;
60060;SDS011;45933;51.336;12.612;2022-12-18T10:56:39;13.85;;;8.80;;
60060;SDS011;45933;51.336;12.612;2022-12-18T10:59:06;11.07;;;8.88;;
60060;SDS011;45933;51.336;12.612;2022-12-18T11:01:47;11.85;;;9.73;;
60060;SDS011;45933;51.336;12.612;2022-12-18T11:04:15;11.82;;;9.35;;
60060;SDS011;45933;51.336;12.612;2022-12-18T11:07:02;13.13;;;9.38;;
60060;SDS011;45933;51.336;12.612;2022-12-18T11:09:35;12.95;;;9.60;;
60060;SDS011;45933;51.336;12.612;2022-12-18T11:12:03;12.43;;;9.88;;
60060;SDS011;45933;51.336;12.612;2022-12-18T11:14:43;12.10;;;9.40;;
60060;SDS011;45933;51.336;12.612;2022-12-18T11:17:19;11.80;;;8.80;;
60060;SDS011;45933;51.336;12.612;2022-12-18T11:19:54;12.77;;;10.55;;
60060;SDS011;45933;51.336;12.612;2022-12-18T11:22:23;13.30;;;10.63;;
60060;SDS011;45933;51.336;12.612;2022-12-18T11:28:00;12.98;;;9.98;;
60060;SDS011;45933;51.336;12.612;2022-12-18T11:30:34;14.73;;;9.80;;
60060;SDS011;45933;51.336;12.612;2022-12-18T11:33:05;16.88;;;12.00;;
60060;SDS011;45933;51.336;12.612;2022-12-18T11:35:37;18.60;;;13.05;;
60060;SDS011;45933;51.336;12.612;2022-12-18T11:38:20;18.48;;;12.57;;
60060;SDS011;45933;51.336;12.612;2022-12-18T11:40:55;13.00;;;11.02;;
60060;SDS011;45933;51.336;12.612;2022-12-18T11:43:28;12.73;;;10.68;;
60060;SDS011;45933;51.336;12.612;2022-12-18T11:46:18;11.93;;;9.65;;
60060;SDS011;45933;51.336;12.612;2022-12-18T11:48:58;13.02;;;9.95;;
60060;SDS011;45933;51.336;12.612;2022-12-18T11:51:37;55.38;;;43.92;;
60060;SDS011;45933;51.336;12.612;2022-12-18T11:54:12;29.58;;;19.35;;
60060;SDS011;45933;51.336;12.612;2022-12-18T11:56:42;27.38;;;21.33;;
60060;SDS011;45933;51.336;12.612;2022-12-18T12:01:50;14.50;;;12.25;;
60060;SDS011;45933;51.336;12.612;2022-12-18T12:04:30;16.73;;;14.13;;
60060;SDS011;45933;51.336;12.612;2022-12-18T12:07:14;20.70;;;18.60;;
60060;SDS011;45933;51.336;12.612;2022-12-18T12:12:51;15.85;;;12.98;;
60060;SDS011;45933;51.336;12.612;2022-12-18T12:22:00;13.27;;;10.10;;
60060;SDS011;45933;51.336;12.612;2022-12-18T12:26:34;13.43;;;11.20;;
60060;SDS011;45933;51.336;12.612;2022-12-18T12:29:22;14.35;;;11.98;;
60060;SDS011;45933;51.336;12.612;2022-12-18T12:40:20;24.63;;;15.10;;
60060;SDS011;45933;51.336;12.612;2022-12-18T12:43:01;31.77;;;18.67;;
60060;SDS011;45933;51.336;12.612;2022-12-18T12:45:58;41.55;;;23.02;;
60060;SDS011;45933;51.336;12.612;2022-12-18T12:51:37;17.98;;;13.20;;
60060;SDS011;45933;51.336;12.612;2022-12-18T12:54:06;17.70;;;14.52;;
60060;SDS011;45933;51.336;12.612;2022-12-18T12:59:16;16.30;;;12.07;;
60060;SDS011;45933;51.336;12.612;2022-12-18T13:04:42;18.23;;;12.80;;
60060;SDS011;45933;51.336;12.612;2022-12-18T13:07:15;18.87;;;12.77;;
60060;SDS011;45933;51.336;12.612;2022-12-18T13:12:51;17.30;;;11.73;;
60060;SDS011;45933;51.336;12.612;2022-12-18T13:15:25;19.63;;;12.80;;
60060;SDS011;45933;51.336;12.612;2022-12-18T13:18:11;17.30;;;12.77;;
60060;SDS011;45933;51.336;12.612;2022-12-18T13:20:47;17.10;;;12.77;;
60060;SDS011;45933;51.336;12.612;2022-12-18T13:23:34;16.90;;;12.25;;
60060;SDS011;45933;51.336;12.612;2022-12-18T13:31:10;16.80;;;12.52;;
60060;SDS011;45933;51.336;12.612;2022-12-18T13:36:25;15.98;;;12.30;;
60060;SDS011;45933;51.336;12.612;2022-12-18T13:41:39;19.83;;;13.63;;
60060;SDS011;45933;51.336;12.612;2022-12-18T13:44:50;19.10;;;13.00;;
60060;SDS011;45933;51.336;12.612;2022-12-18T13:46:59;17.73;;;12.37;;
60060;SDS011;45933;51.336;12.612;2022-12-18T13:49:41;19.50;;;13.80;;
60060;SDS011;45933;51.336;12.612;2022-12-18T13:52:22;17.53;;;12.47;;
60060;SDS011;45933;51.336;12.612;2022-12-18T13:54:51;18.53;;;13.37;;
60060;SDS011;45933;51.336;12.612;2022-12-18T14:02:44;20.97;;;14.10;;
60060;SDS011;45933;51.336;12.612;2022-12-18T14:05:26;23.47;;;15.43;;
60060;SDS011;45933;51.336;12.612;2022-12-18T14:08:05;23.33;;;14.77;;
60060;SDS011;45933;51.336;12.612;2022-12-18T14:10:33;23.67;;;15.20;;
60060;SDS011;45933;51.336;12.612;2022-12-18T14:13:03;26.13;;;16.07;;
60060;SDS011;45933;51.336;12.612;2022-12-18T14:15:35;24.50;;;16.07;;
60060;SDS011;45933;51.336;12.612;2022-12-18T14:18:14;22.03;;;14.30;;
60060;SDS011;45933;51.336;12.612;2022-12-18T14:20:51;21.63;;;13.50;;
60060;SDS011;45933;51.336;12.612;2022-12-18T14:26:24;30.57;;;17.20;;
60060;SDS011;45933;51.336;12.612;2022-12-18T14:28:53;25.50;;;14.57;;
60060;SDS011;45933;51.336;12.612;2022-12-18T14:31:24;22.87;;;15.03;;
60060;SDS011;45933;51.336;12.612;2022-12-18T14:33:51;23.80;;;14.30;;
60060;SDS011;45933;51.336;12.612;2022-12-18T14:36:19;22.33;;;14.07;;
60060;SDS011;45933;51.336;12.612;2022-12-18T14:38:53;33.60;;;21.50;;
60060;SDS011;45933;51.336;12.612;2022-12-18T14:41:20;30.07;;;19.77;;
60060;SDS011;45933;51.336;12.612;2022-12-18T14:43:47;27.53;;;17.43;;
60060;SDS011;45933;51.336;12.612;2022-12-18T14:46:30;25.23;;;15.10;;
60060;SDS011;45933;51.336;12.612;2022-12-18T14:49:05;26.10;;;16.37;;
60060;SDS011;45933;51.336;12.612;2022-12-18T14:51:53;26.87;;;16.50;;
60060;SDS011;45933;51.336;12.612;2022-12-18T14:54:21;29.90;;;16.43;;
60060;SDS011;45933;51.336;12.612;2022-12-18T14:56:56;26.10;;;16.33;;
60060;SDS011;45933;51.336;12.612;2022-12-18T14:59:26;27.03;;;15.30;;
60060;SDS011;45933;51.336;12.612;2022-12-18T15:02:26;26.37;;;15.70;;
60060;SDS011;45933;51.336;12.612;2022-12-18T15:05:03;28.70;;;17.30;;
60060;SDS011;45933;51.336;12.612;2022-12-18T15:07:51;28.43;;;15.73;;
60060;SDS011;45933;51.336;12.612;2022-12-18T15:10:20;21.67;;;14.57;;
60060;SDS011;45933;51.336;12.612;2022-12-18T15:18:01;26.87;;;16.10;;
60060;SDS011;45933;51.336;12.612;2022-12-18T15:23:22;27.77;;;15.13;;
60060;SDS011;45933;51.336;12.612;2022-12-18T15:25:54;26.17;;;14.77;;
60060;SDS011;45933;51.336;12.612;2022-12-18T15:28:32;30.33;;;15.33;;
60060;SDS011;45933;51.336;12.612;2022-12-18T15:30:59;27.80;;;15.83;;
60060;SDS011;45933;51.336;12.612;2022-12-18T15:33:26;26.87;;;14.73;;
60060;SDS011;45933;51.336;12.612;2022-12-18T15:35:58;27.73;;;15.47;;
60060;SDS011;45933;51.336;12.612;2022-12-18T15:38:25;30.07;;;15.40;;
60060;SDS011;45933;51.336;12.612;2022-12-18T15:40:52;27.43;;;14.83;;
60060;SDS011;45933;51.336;12.612;2022-12-18T15:43:19;29.50;;;15.57;;
60060;SDS011;45933;51.336;12.612;2022-12-18T15:45:58;31.57;;;18.10;;
60060;SDS011;45933;51.336;12.612;2022-12-18T15:48:33;28.37;;;16.37;;
60060;SDS011;45933;51.336;12.612;2022-12-18T15:51:00;29.40;;;16.83;;
60060;SDS011;45933;51.336;12.612;2022-12-18T15:53:27;27.60;;;15.73;;
60060;SDS011;45933;51.336;12.612;2022-12-18T15:55:56;30.20;;;16.07;;
60060;SDS011;45933;51.336;12.612;2022-12-18T15:58:41;27.17;;;15.60;;
60060;SDS011;45933;51.336;12.612;2022-12-18T16:01:07;27.63;;;15.47;;
60060;SDS011;45933;51.336;12.612;2022-12-18T16:03:34;27.67;;;15.50;;
60060;SDS011;45933;51.336;12.612;2022-12-18T16:05:59;31.83;;;16.93;;
60060;SDS011;45933;51.336;12.612;2022-12-18T16:08:26;29.47;;;15.70;;
60060;SDS011;45933;51.336;12.612;2022-12-18T16:10:54;31.37;;;16.37;;
60060;SDS011;45933;51.336;12.612;2022-12-18T16:13:19;31.97;;;17.80;;
60060;SDS011;45933;51.336;12.612;2022-12-18T16:15:45;29.20;;;15.70;;